Latest Weather Observations for Shay Gap

IDW60801

Issued at 10:05 pm WST Monday 1 September 2014 (issued every 30 minutes, with the page automatically refreshed every 10 minutes)

About weather observations | Map of weather stations | Latest weather observations for WA | Other Formats
Station Details ID: 504045 Name: SHAY GAP Lat: -20.43 Lon: 120.13 Height: 173.83 m
Data from the previous 72 hours. | See also: Recent months for locations in Western Australia
Date/Time
WST
Temp
°C
App
Temp
°C
Dew
Point
Rel
Hum
%
Delta-T
°C
Wind Press
QNH
hPa
Press
MSL
hPa
Rain
since 9 am
mm
Dir
 
Spd
km/h
Gust
km/h
Spd
kts
Gust
kts
01/10:00pm 22.1 18.8 0.0 23 10.0 WNW 7 7 4 4 1016.5 1015.7 0.0
01/09:30pm 22.7 19.4 -1.4 20 10.7 WNW 6 7 3 4 1016.5 1015.7 0.0
01/09:00pm 23.7 19.9 -0.6 20 11.0 W 9 11 5 6 1016.5 1015.7 0.0
01/08:30pm 23.6 19.4 -0.6 20 11.0 W 11 13 6 7 1016.2 1015.4 0.0
01/08:00pm 24.1 19.9 -0.9 19 11.3 WNW 11 13 6 7 1016.0 1015.2 0.0
01/07:30pm 24.6 20.0 -1.3 18 11.7 NW 13 15 7 8 1015.6 1014.7 0.0
01/07:00pm 24.9 20.7 -1.0 18 11.8 NNW 11 13 6 7 1015.3 1014.4 0.0
01/06:30pm 26.6 21.5 -2.1 15 13.0 NNW 15 17 8 9 1014.9 1014.0 0.0
01/06:00pm 28.5 23.7 -2.6 13 14.1 N 13 15 7 8 1014.6 1013.7 0.0
01/05:30pm 30.9 24.9 -3.0 11 15.6 N 19 22 10 12 1014.3 1013.4 0.0
01/05:00pm 32.2 26.0 -3.2 10 16.4 N 20 28 11 15 1014.0 1013.1 0.0
01/04:30pm 33.2 27.1 -2.5 10 16.8 NNW 20 26 11 14 1013.8 1012.9 0.0
01/04:00pm 34.4 27.8 -3.0 9 17.6 N 22 28 12 15 1013.7 1012.8 0.0
01/03:30pm 34.2 28.8 -4.7 8 17.8 E 15 22 8 12 1013.7 1012.8 0.0
01/03:00pm 34.2 29.4 -6.5 7 18.1 NE 11 24 6 13 1014.0 1013.1 0.0
01/02:30pm 33.7 29.4 -5.1 8 17.6 SE 9 13 5 7 1014.1 1013.2 0.0
01/02:00pm 33.7 27.5 -5.1 8 17.6 NE 19 24 10 13 1014.4 1013.5 0.0
01/01:30pm 34.2 29.2 -4.7 8 17.8 ESE 13 20 7 11 1014.7 1013.8 0.0
01/01:00pm 33.7 28.6 -5.1 8 17.6 E 13 22 7 12 1015.1 1014.2 0.0
01/12:30pm 32.8 27.3 -5.7 8 17.2 SSE 15 19 8 10 1015.4 1014.5 0.0
01/12:00pm 32.2 27.5 -4.6 9 16.6 NNE 11 24 6 13 1016.0 1015.2 0.0
01/11:30am 31.8 27.1 -4.9 9 16.5 SE 11 17 6 9 1016.3 1015.5 0.0
01/11:00am 31.5 26.4 -5.2 9 16.3 SE 13 22 7 12 1016.6 1015.8 0.0
01/10:30am 31.0 26.0 -4.1 10 15.9 SSE 13 20 7 11 1017.0 1016.1 0.0
01/10:00am 29.7 24.0 -3.9 11 15.1 SSE 17 24 9 13 1017.1 1016.2 0.0
01/09:30am 29.1 23.5 -3.2 12 14.6 SSE 17 20 9 11 1017.3 1016.4 0.0
01/09:00am 27.6 22.5 -2.3 14 13.6 SE 15 19 8 10 1017.1 1016.2 0.0
01/08:30am 25.8 20.3 -1.9 16 12.5 SSE 17 22 9 12 1016.8 1015.9 0.0
01/08:00am 23.9 18.3 -2.6 17 11.6 SSE 17 19 9 10 1016.3 1015.5 0.0
01/07:30am 21.8 17.1 -1.5 21 10.2 SSE 13 17 7 9 1016.1 1015.5 0.0
01/07:00am 18.5 13.6 -0.8 27 8.3 SSE 15 17 8 9 1015.9 1015.3 0.0
01/06:30am 16.9 11.0 -2.2 27 7.9 S 19 20 10 11 1015.6 1015.0 0.0
01/06:00am 16.4 11.0 -1.7 29 7.5 S 17 19 9 10 1015.3 1014.7 0.0
01/05:30am 17.5 12.7 -2.7 25 8.3 SSE 13 15 7 8 1015.0 1014.4 0.0
01/05:00am 17.8 13.0 -2.5 25 8.4 S 13 15 7 8 1014.8 1014.2 0.0
01/04:30am 18.1 13.3 -2.8 24 8.6 S 13 15 7 8 1014.6 1014.0 0.0
01/04:00am 17.9 12.7 -2.4 25 8.4 S 15 17 8 9 1014.4 1013.8 0.0
01/03:30am 17.4 12.3 -2.3 26 8.2 S 15 17 8 9 1014.3 1013.7 0.0
01/03:00am 17.8 12.9 -3.0 24 8.5 S 13 15 7 8 1014.3 1013.7 0.0
01/02:30am 19.2 14.0 -3.0 22 9.2 S 15 15 8 8 1014.6 1014.0 0.0
01/02:00am 18.8 14.4 -2.7 23 9.0 S 11 13 6 7 1014.7 1014.1 0.0
01/01:30am 21.1 16.9 -4.1 18 10.5 SSW 9 11 5 6 1015.0 1014.4 0.0
01/01:00am 19.1 14.3 -2.5 23 9.1 SW 13 17 7 9 1015.2 1014.6 0.0
01/12:30am 18.3 13.8 -0.5 28 8.2 WSW 13 15 7 8 1015.3 1014.7 0.0
01/12:00am 18.3 14.2 0.0 29 8.0 WSW 11 13 6 7 1015.4 1014.8 0.0
 
Date/Time
WST
Temp
°C
App
Temp
°C
Dew
Point
Rel
Hum
%
Delta-T
°C
Wind Press
QNH
hPa
Press
MSL
hPa
Rain
since 9 am
mm
Dir
 
Spd
km/h
Gust
km/h
Spd
kts
Gust
kts
31/11:30pm 19.8 14.6 0.3 27 8.7 WSW 17 17 9 9 1015.5 1014.9 0.0
31/11:00pm 19.8 14.8 -1.3 24 9.1 WSW 15 19 8 10 1015.5 1014.9 0.0
31/10:30pm 19.5 15.0 -0.5 26 8.8 WSW 13 17 7 9 1015.5 1014.9 0.0
31/10:00pm 20.0 14.6 -1.2 24 9.2 WSW 17 19 9 10 1015.5 1014.9 0.0
31/09:30pm 20.2 15.1 -1.6 23 9.4 W 15 17 8 9 1015.4 1014.8 0.0
31/09:00pm 21.7 17.6 -2.9 19 10.5 NW 9 11 5 6 1015.3 1014.7 0.0
31/08:30pm 22.4 18.1 -1.6 20 10.6 NW 11 11 6 6 1015.1 1014.5 0.0
31/08:00pm 22.7 18.3 -2.1 19 10.8 WNW 11 13 6 7 1014.8 1014.2 0.0
31/07:30pm 23.1 18.3 -2.5 18 11.2 NW 13 15 7 8 1014.6 1014.0 0.0
31/07:00pm 23.9 18.6 -3.4 16 11.8 NW 15 17 8 9 1014.2 1013.6 0.0
31/06:30pm 25.4 20.1 -4.0 14 12.7 NW 15 17 8 9 1014.0 1013.4 0.0
31/06:00pm 27.5 21.7 -4.4 12 13.9 NNW 17 20 9 11 1013.8 1013.2 0.0
31/05:30pm 30.0 23.6 -4.9 10 15.4 NNW 20 24 11 13 1013.7 1013.1 0.0
31/05:00pm 31.4 24.6 -5.2 9 16.3 NNW 22 28 12 15 1013.4 1012.8 0.0
31/04:30pm 31.9 24.0 -4.9 9 16.5 N 28 35 15 19 1013.4 1012.8 0.0
31/04:00pm 32.9 26.2 -4.1 9 17.0 N 22 33 12 18 1013.2 1012.6 0.0
31/03:30pm 33.2 28.7 -7.2 7 17.6 SE 9 17 5 9 1013.1 1012.5 0.0
31/03:00pm 32.9 28.3 -7.4 7 17.5 SE 9 13 5 7 1013.3 1012.7 0.0
31/02:30pm 33.2 29.2 -5.5 8 17.4 SSW 7 13 4 7 1013.4 1012.8 0.0
31/02:00pm 33.1 27.0 -7.3 7 17.6 N 17 20 9 11 1013.6 1013.0 0.0
31/01:30pm 32.7 26.6 -7.6 7 17.4 E 17 22 9 12 1014.1 1013.5 0.0
31/01:00pm 32.3 26.6 -7.8 7 17.2 ESE 15 26 8 14 1014.5 1013.9 0.0
31/12:30pm 32.3 27.1 -6.1 8 16.9 E 13 22 7 12 1015.0 1014.4 0.0
31/12:00pm 31.8 26.6 -6.5 8 16.7 ESE 13 22 7 12 1015.4 1014.8 0.0
31/11:30am 31.3 27.0 -5.3 9 16.2 N 9 17 5 9 1015.9 1015.3 0.0
31/11:00am 30.3 25.9 -6.1 9 15.8 SSE 9 19 5 10 1016.5 1015.9 0.0
31/10:30am 29.9 24.7 -6.4 9 15.6 S 13 20 7 11 1017.0 1016.3 0.0
31/10:00am 28.5 22.6 -6.0 10 14.7 SSE 17 20 9 11 1017.3 1016.6 0.0
31/09:30am 27.3 21.4 -5.7 11 14.1 S 17 20 9 11 1017.4 1016.7 0.0
31/09:00am 25.2 19.4 -4.2 14 12.6 SSE 17 19 9 10 1017.5 1016.9 0.0
31/08:30am 23.6 17.9 -3.7 16 11.7 SSE 17 20 9 11 1017.3 1016.6 0.0
31/08:00am 21.8 16.7 -2.1 20 10.4 SSE 15 17 8 9 1017.0 1016.3 0.0
31/07:30am 19.9 15.5 0.4 27 8.8 SE 13 13 7 7 1016.6 1016.0 0.0
31/07:00am 18.0 13.1 -0.8 28 8.1 SSE 15 17 8 9 1016.3 1015.7 0.0
31/06:30am 15.5 10.8 -2.0 30 7.2 S 13 15 7 8 1015.8 1015.2 0.0
31/06:00am 16.4 11.7 -2.1 28 7.6 SSE 13 13 7 7 1015.6 1015.0 0.0
31/05:30am 16.8 12.4 -2.3 27 7.9 SSE 11 13 6 7 1015.4 1014.8 0.0
31/05:00am 16.6 11.8 -2.5 27 7.8 SSE 13 13 7 7 1015.4 1014.8 0.0
31/04:30am 17.9 13.3 -4.1 22 8.8 SSE 11 11 6 6 1015.2 1014.6 0.0
31/04:00am 19.7 15.1 -3.9 20 9.7 S 11 13 6 7 1015.1 1014.5 0.0
31/03:30am 20.0 15.8 -4.3 19 9.9 S 9 9 5 5 1015.0 1014.4 0.0
31/03:00am 19.0 14.5 -3.2 22 9.2 S 11 13 6 7 1015.1 1014.5 0.0
31/02:30am 19.1 14.5 -3.7 21 9.4 S 11 11 6 6 1015.2 1014.6 0.0
31/02:00am 18.7 13.7 -4.0 21 9.2 SSW 13 15 7 8 1015.4 1014.8 0.0
31/01:30am 18.1 13.6 -3.3 23 8.8 S 11 13 6 7 1015.7 1015.1 0.0
31/01:00am 18.6 13.8 -2.9 23 8.9 SSW 13 15 7 8 1015.8 1015.2 0.0
31/12:30am 18.5 14.3 -0.8 27 8.4 SSW 11 11 6 6 1016.0 1015.4 0.0
31/12:00am 18.1 13.3 0.3 30 7.8 SW 15 17 8 9 1016.2 1015.6 0.0
 
Date/Time
WST
Temp
°C
App
Temp
°C
Dew
Point
Rel
Hum
%
Delta-T
°C
Wind Press
QNH
hPa
Press
MSL
hPa
Rain
since 9 am
mm
Dir
 
Spd
km/h
Gust
km/h
Spd
kts
Gust
kts
30/11:30pm 18.6 13.8 0.2 29 8.1 WSW 15 17 8 9 1016.3 1015.7 0.0
30/11:00pm 18.8 13.3 -2.2 24 8.8 SW 17 19 9 10 1016.5 1015.9 0.0
30/10:30pm 18.3 13.6 -2.0 25 8.6 WSW 13 15 7 8 1016.8 1016.1 0.0
30/10:00pm 20.1 14.6 -2.3 22 9.5 WSW 17 20 9 11 1016.9 1016.2 0.0
30/09:30pm 20.2 16.5 0.1 26 9.0 W 9 13 5 7 1017.0 1016.3 0.0
30/09:00pm 21.6 17.5 -0.4 23 9.8 W 11 13 6 7 1016.9 1016.2 0.0
30/08:30pm 21.6 17.4 -1.0 22 10.0 W 11 13 6 7 1016.8 1016.1 0.0
30/08:00pm 22.1 18.1 -1.9 20 10.5 W 9 13 5 7 1016.6 1016.0 0.0
30/07:30pm 22.3 18.0 -1.7 20 10.5 W 11 13 6 7 1016.4 1015.8 0.0
30/07:00pm 22.8 17.6 -2.7 18 11.0 WNW 15 15 8 8 1016.1 1015.5 0.0
30/06:30pm 24.4 19.1 -3.9 15 12.1 NW 15 17 8 9 1015.9 1015.3 0.0
30/06:00pm 26.2 20.7 -5.4 12 13.4 NW 15 17 8 9 1015.5 1014.9 0.0
30/05:30pm 29.1 22.6 -5.6 10 15.0 NNW 20 26 11 14 1015.3 1014.7 0.0
30/05:00pm 30.4 23.5 -6.0 9 15.8 N 22 30 12 16 1015.1 1014.5 0.0
30/04:30pm 31.4 25.0 -5.2 9 16.3 N 20 26 11 14 1014.9 1014.3 0.0
30/04:00pm 32.1 27.5 -8.0 7 17.1 SSE 9 17 5 9 1014.6 1014.0 0.0
30/03:30pm 32.0 27.4 -8.1 7 17.1 ESE 9 11 5 6 1014.6 1014.0 0.0
30/03:00pm 32.6 26.9 -7.6 7 17.3 NNE 15 30 8 16 1014.6 1014.0 0.0
30/02:30pm 32.5 27.2 -7.7 7 17.3 NE 13 20 7 11 1014.8 1014.2 0.0
30/02:00pm 32.6 26.9 -7.6 7 17.3 SE 15 20 8 11 1014.9 1014.3 0.0
30/01:30pm 32.5 25.5 -7.7 7 17.3 ENE 22 30 12 16 1015.5 1014.9 0.0
30/01:00pm 31.3 24.7 -8.6 7 16.7 NNE 19 35 10 19 1015.8 1015.2 0.0
30/12:30pm 31.7 25.2 -8.3 7 16.9 E 19 24 10 13 1016.1 1015.5 0.0
30/12:00pm 32.2 25.1 -7.9 7 17.1 ENE 22 32 12 17 1016.5 1015.9 0.0
30/11:30am 31.5 24.8 -8.4 7 16.8 E 20 32 11 17 1017.0 1016.3 0.0
30/11:00am 30.5 24.7 -9.1 7 16.3 ENE 15 22 8 12 1017.6 1017.0 0.0
30/10:30am 28.9 23.1 -8.6 8 15.4 E 15 24 8 13 1018.0 1017.4 0.0
30/10:00am 27.9 22.5 -7.9 9 14.7 SE 13 17 7 9 1018.4 1017.8 0.0
30/09:30am 26.1 20.4 -7.9 10 13.8 SE 15 19 8 10 1018.7 1018.1 0.0
30/09:00am 24.9 19.3 -6.4 12 12.8 SSE 15 19 8 10 1018.8 1018.2 0.0
30/08:30am 23.8 17.8 -6.2 13 12.3 SE 17 19 9 10 1018.8 1018.2 0.0
30/08:00am 22.7 17.1 -6.1 14 11.6 SE 15 20 8 11 1018.6 1018.0 0.0
30/07:30am 19.7 13.9 -4.5 19 9.8 SSE 17 17 9 9 1018.2 1017.6 0.0
30/07:00am 16.5 10.4 -3.6 25 8.0 S 19 20 10 11 1017.7 1017.1 0.0
30/06:30am 13.7 8.0 -3.5 30 6.7 SSE 17 19 9 10 1017.4 1016.7 0.0
30/06:00am 12.9 6.9 -3.0 33 6.2 SSE 19 20 10 11 1017.3 1016.6 0.0
30/05:30am 12.8 6.7 -3.9 31 6.4 SSE 19 20 10 11 1017.2 1016.5 0.0
30/05:00am 12.8 6.7 -3.5 32 6.3 SSE 19 20 10 11 1017.1 1016.4 0.0
30/04:30am 14.1 8.5 -3.2 30 6.8 SE 17 20 9 11 1017.0 1016.3 0.0
30/04:00am 13.8 9.0 -2.2 33 6.4 SSE 13 15 7 8 1017.0 1016.3 0.0
30/03:30am 17.2 12.7 -3.5 24 8.4 S 11 13 6 7 1017.0 1016.3 0.0
30/03:00am 17.6 13.0 -4.3 22 8.7 S 11 13 6 7 1017.0 1016.3 0.0
30/02:30am 17.3 12.4 -3.4 24 8.4 S 13 13 7 7 1017.2 1016.5 0.0
30/02:00am 17.3 12.5 -2.4 26 8.1 S 13 13 7 7 1017.2 1016.5 0.0
30/01:30am 15.9 11.2 -1.6 30 7.3 S 13 15 7 8 1017.3 1016.6 0.0
30/01:00am 16.2 11.5 -1.8 29 7.5 S 13 15 7 8 1017.5 1016.9 0.0
30/12:30am 16.8 11.6 -2.8 26 8.0 S 15 17 8 9 1017.7 1017.1 0.0
30/12:00am 17.0 11.8 -2.6 26 8.0 SSE 15 17 8 9 1017.9 1017.3 0.0
 
Date/Time
WST
Temp
°C
App
Temp
°C
Dew
Point
Rel
Hum
%
Delta-T
°C
Wind Press
QNH
hPa
Press
MSL
hPa
Rain
since 9 am
mm
Dir
 
Spd
km/h
Gust
km/h
Spd
kts
Gust
kts
29/11:30pm 18.9 14.6 -5.2 19 9.6 S 9 11 5 6 1018.0 1017.4 0.0
29/11:00pm 19.5 15.0 -7.0 16 10.2 SW 9 13 5 7 1018.0 1017.4 0.0
29/10:30pm 19.7 14.6 -5.3 18 10.0 WSW 13 17 7 9 1018.0 1017.4 0.0

Other Formats:

Comma delimited format used in spreadsheet applications
http://www.bom.gov.au/fwo/IDW60801/IDW60801.99311.axf

JavaScript Object Notation format (JSON) in row-major order
http://www.bom.gov.au/fwo/IDW60801/IDW60801.99311.json